createdAt,value
2022-12-31T00:02:12.874Z,73.52
2022-12-31T00:04:44.609Z,72.45
2022-12-31T00:07:16.291Z,72.23
2022-12-31T00:09:47.941Z,75.66
2022-12-31T00:12:19.616Z,76.79
2022-12-31T00:14:51.294Z,75.71
2022-12-31T00:17:22.922Z,75.84
2022-12-31T00:19:54.500Z,73.65
2022-12-31T00:22:26.050Z,74.37
2022-12-31T00:24:57.621Z,76.28
2022-12-31T00:27:33.271Z,77.09
2022-12-31T00:30:05.237Z,77.13
2022-12-31T00:32:36.868Z,78.26
2022-12-31T00:35:08.934Z,79.52
2022-12-31T00:37:40.588Z,79.50
2022-12-31T00:40:12.264Z,80.02
2022-12-31T00:42:44.664Z,80.70
2022-12-31T00:45:17.062Z,83.08
2022-12-31T00:47:48.748Z,81.47
2022-12-31T00:50:20.328Z,80.50
2022-12-31T00:52:51.904Z,77.61
2022-12-31T00:55:23.464Z,76.53
2022-12-31T00:57:55.042Z,74.85
2022-12-31T01:00:26.613Z,75.46
2022-12-31T01:02:58.335Z,74.37
2022-12-31T01:05:31.141Z,73.12
2022-12-31T01:08:03.501Z,71.67
2022-12-31T01:10:35.092Z,71.39
2022-12-31T01:13:07.090Z,74.00
2022-12-31T01:15:39.872Z,76.56
2022-12-31T01:18:11.553Z,77.51
2022-12-31T01:20:44.769Z,79.83
2022-12-31T01:23:16.371Z,80.68
2022-12-31T01:25:47.965Z,78.86
2022-12-31T01:28:19.548Z,79.82
2022-12-31T01:30:51.146Z,77.24
2022-12-31T01:33:27.559Z,75.34
2022-12-31T01:36:08.130Z,74.79
2022-12-31T01:38:41.127Z,74.76
2022-12-31T01:41:15.452Z,79.74
2022-12-31T01:43:53.421Z,80.18
2022-12-31T01:46:51.879Z,80.55
2022-12-31T01:49:41.566Z,80.32
2022-12-31T01:52:20.107Z,77.66
2022-12-31T01:54:57.824Z,78.07
2022-12-31T01:57:30.879Z,78.28
2022-12-31T02:00:05.256Z,77.84
2022-12-31T02:02:36.931Z,76.24
2022-12-31T02:05:31.620Z,75.42
2022-12-31T02:08:06.747Z,77.47
2022-12-31T02:10:38.631Z,79.56
2022-12-31T02:13:10.735Z,80.29
2022-12-31T02:15:45.360Z,79.04
2022-12-31T02:18:23.020Z,78.43
2022-12-31T02:21:23.631Z,78.02
2022-12-31T02:24:16.833Z,75.57
2022-12-31T02:27:01.857Z,75.13
2022-12-31T02:30:03.705Z,76.26
2022-12-31T02:32:42.883Z,73.57
2022-12-31T02:35:34.668Z,73.14
2022-12-31T02:38:14.182Z,72.30
2022-12-31T02:40:45.985Z,76.11
2022-12-31T02:43:17.573Z,76.40
2022-12-31T02:46:13.382Z,74.08
2022-12-31T02:49:20.669Z,72.83
2022-12-31T02:52:15.447Z,74.55
2022-12-31T02:55:11.097Z,77.12
2022-12-31T02:58:03.131Z,77.80
2022-12-31T03:00:45.152Z,76.48
2022-12-31T03:03:20.317Z,75.53
2022-12-31T03:05:52.551Z,73.18
2022-12-31T03:08:26.297Z,72.01
2022-12-31T03:10:57.847Z,71.67
2022-12-31T03:13:29.444Z,70.74
2022-12-31T03:16:01.039Z,72.80
2022-12-31T03:18:32.694Z,72.55
2022-12-31T03:21:12.528Z,76.05
2022-12-31T03:23:44.809Z,75.00
2022-12-31T03:26:16.413Z,74.35
2022-12-31T03:28:48.178Z,73.71
2022-12-31T03:31:19.807Z,73.19
2022-12-31T03:33:51.624Z,74.63
2022-12-31T03:36:23.271Z,75.10
2022-12-31T03:38:54.921Z,76.30
2022-12-31T03:41:26.595Z,76.44
2022-12-31T03:43:58.253Z,75.33
2022-12-31T03:46:29.870Z,76.23
2022-12-31T03:49:01.542Z,75.39
2022-12-31T03:51:33.212Z,77.01
2022-12-31T03:54:05.101Z,77.82
2022-12-31T03:56:36.767Z,75.43
2022-12-31T03:59:08.423Z,75.31
2022-12-31T04:01:40.056Z,76.04
2022-12-31T04:04:11.781Z,75.18
2022-12-31T04:06:43.356Z,72.76
2022-12-31T04:09:15.048Z,72.72
2022-12-31T04:11:46.705Z,74.83
2022-12-31T04:14:19.045Z,75.47
2022-12-31T04:16:50.761Z,78.09
2022-12-31T04:19:22.388Z,76.35
2022-12-31T04:21:54.030Z,76.30
2022-12-31T04:24:25.713Z,75.21
2022-12-31T04:27:03.620Z,73.61
2022-12-31T04:29:38.961Z,73.52
2022-12-31T04:32:10.939Z,76.01
2022-12-31T04:34:42.650Z,75.30
2022-12-31T04:37:14.325Z,74.18
2022-12-31T04:39:46.007Z,74.21
2022-12-31T04:42:17.547Z,74.68
2022-12-31T04:44:49.202Z,73.22
2022-12-31T04:47:23.840Z,73.01
2022-12-31T04:49:55.893Z,74.46
2022-12-31T04:52:27.575Z,73.93
2022-12-31T04:54:59.422Z,76.43
2022-12-31T04:57:31.143Z,76.61
2022-12-31T05:00:02.877Z,76.57
2022-12-31T05:02:34.675Z,74.05
2022-12-31T05:05:06.907Z,75.07
2022-12-31T05:07:38.550Z,77.19
2022-12-31T05:10:10.172Z,76.90
2022-12-31T05:12:43.189Z,76.89
2022-12-31T05:15:15.080Z,77.33
2022-12-31T05:17:46.671Z,76.38
2022-12-31T05:20:18.227Z,77.60
2022-12-31T05:22:49.869Z,75.65
2022-12-31T05:25:21.589Z,75.97
2022-12-31T05:27:53.173Z,75.31
2022-12-31T05:30:25.207Z,73.51
2022-12-31T05:32:57.208Z,72.82
2022-12-31T05:35:29.104Z,73.21
2022-12-31T05:38:01.831Z,72.56
2022-12-31T05:40:33.448Z,71.33
2022-12-31T05:43:05.122Z,74.03
2022-12-31T05:45:37.625Z,74.32
2022-12-31T05:48:09.211Z,75.37
2022-12-31T05:50:40.892Z,76.09
2022-12-31T05:53:13.242Z,77.58
2022-12-31T05:55:47.132Z,75.78
2022-12-31T05:58:18.787Z,73.15
2022-12-31T06:00:51.855Z,72.84
2022-12-31T06:03:23.464Z,75.02
2022-12-31T06:05:55.073Z,73.86
2022-12-31T06:08:26.665Z,71.33
2022-12-31T06:10:58.253Z,70.50
2022-12-31T06:13:29.998Z,74.62
2022-12-31T06:16:06.823Z,73.84
2022-12-31T06:18:38.551Z,74.57
2022-12-31T06:21:10.167Z,76.69
2022-12-31T06:23:41.767Z,76.35
2022-12-31T06:26:13.853Z,76.44
2022-12-31T06:28:45.586Z,73.09
2022-12-31T06:31:17.451Z,73.01
2022-12-31T06:33:49.049Z,73.33
2022-12-31T06:36:20.734Z,70.90
2022-12-31T06:38:53.235Z,72.41
2022-12-31T06:41:24.928Z,72.37
2022-12-31T06:43:56.711Z,75.56
2022-12-31T06:46:30.805Z,73.58
2022-12-31T06:49:02.847Z,72.42
2022-12-31T06:51:34.507Z,73.81
2022-12-31T06:54:06.389Z,72.67
2022-12-31T06:56:38.380Z,71.84
2022-12-31T06:59:24.976Z,70.41
2022-12-31T07:02:15.327Z,70.05
2022-12-31T07:05:08.058Z,70.92
2022-12-31T07:07:55.231Z,72.43
2022-12-31T07:11:14.743Z,72.02
2022-12-31T07:14:16.659Z,74.89
2022-12-31T07:16:57.258Z,74.15
2022-12-31T07:19:57.467Z,71.72
2022-12-31T07:22:29.758Z,70.61
2022-12-31T07:25:01.607Z,72.67
2022-12-31T07:27:50.800Z,74.18
2022-12-31T07:30:39.344Z,70.00
2022-12-31T07:33:33.808Z,69.65
2022-12-31T07:36:32.533Z,67.77
2022-12-31T07:39:20.761Z,69.24
2022-12-31T07:42:26.450Z,70.06
2022-12-31T07:45:40.704Z,68.57
2022-12-31T07:48:27.481Z,69.29
2022-12-31T07:50:59.440Z,69.87
2022-12-31T07:53:31.421Z,69.54
2022-12-31T07:56:08.822Z,69.47
2022-12-31T07:59:08.072Z,58.44
2022-12-31T08:01:57.444Z,62.71
2022-12-31T08:04:39.175Z,58.15
2022-12-31T08:07:36.790Z,55.88
2022-12-31T08:10:34.289Z,58.54
2022-12-31T08:13:10.763Z,63.38
2022-12-31T08:15:42.603Z,61.02
2022-12-31T08:18:14.456Z,60.63
2022-12-31T08:21:14.426Z,58.06
2022-12-31T08:23:57.225Z,61.71
2022-12-31T08:26:50.986Z,61.81
2022-12-31T08:29:27.288Z,61.22
2022-12-31T08:32:43.128Z,60.71
2022-12-31T08:35:32.744Z,61.57
2022-12-31T08:38:48.954Z,61.68
2022-12-31T08:41:23.561Z,59.99
2022-12-31T08:44:13.689Z,59.90
2022-12-31T08:47:03.323Z,61.67
2022-12-31T08:49:35.729Z,62.56
2022-12-31T08:52:20.047Z,59.35
2022-12-31T08:54:52.614Z,59.16
2022-12-31T08:57:33.216Z,58.54
2022-12-31T09:00:13.447Z,57.86
2022-12-31T09:03:05.080Z,57.81
2022-12-31T09:05:45.449Z,58.58
2022-12-31T09:08:26.703Z,56.50
2022-12-31T09:11:01.804Z,55.96
2022-12-31T09:14:11.096Z,55.38
2022-12-31T09:16:56.129Z,55.71
2022-12-31T09:19:27.960Z,56.01
2022-12-31T09:21:59.826Z,56.72
2022-12-31T09:24:32.074Z,55.82
2022-12-31T09:27:27.901Z,55.49
2022-12-31T09:30:12.869Z,52.61
2022-12-31T09:32:54.014Z,52.20
2022-12-31T09:35:56.332Z,52.27
2022-12-31T09:38:46.656Z,53.92
2022-12-31T09:41:41.795Z,53.09
2022-12-31T09:44:46.804Z,56.85
2022-12-31T09:47:36.799Z,55.81
2022-12-31T09:50:11.136Z,54.59
2022-12-31T09:52:46.001Z,57.59
2022-12-31T09:55:39.020Z,56.45
2022-12-31T09:58:37.140Z,55.05
2022-12-31T10:01:17.912Z,56.10
2022-12-31T10:03:52.631Z,54.57
2022-12-31T10:07:00.682Z,54.84
2022-12-31T10:09:50.697Z,58.12
2022-12-31T10:12:28.256Z,58.01
2022-12-31T10:15:37.254Z,63.40
2022-12-31T10:18:27.872Z,63.09
2022-12-31T10:21:26.584Z,66.94
2022-12-31T10:24:39.203Z,61.96
2022-12-31T10:27:32.085Z,63.12
2022-12-31T10:30:13.276Z,64.05
2022-12-31T10:32:56.993Z,62.81
2022-12-31T10:35:42.126Z,58.87
2022-12-31T10:38:51.359Z,60.10
2022-12-31T10:41:52.420Z,57.36
2022-12-31T10:45:05.738Z,56.02
2022-12-31T10:47:49.460Z,54.61
2022-12-31T10:50:35.991Z,56.92
2022-12-31T10:53:27.073Z,57.53
2022-12-31T10:56:36.275Z,56.29
2022-12-31T10:59:32.825Z,56.08
2022-12-31T11:02:16.542Z,56.56
2022-12-31T11:05:00.398Z,60.58
2022-12-31T11:07:52.199Z,58.79
2022-12-31T11:10:45.110Z,61.08
2022-12-31T11:13:58.800Z,61.04
2022-12-31T11:16:56.636Z,60.29
2022-12-31T11:20:05.658Z,61.28
2022-12-31T11:22:56.156Z,62.37
2022-12-31T11:25:39.224Z,60.14
2022-12-31T11:28:38.790Z,59.96
2022-12-31T11:31:36.471Z,60.47
2022-12-31T11:34:28.540Z,60.96
2022-12-31T11:37:32.858Z,61.46
2022-12-31T11:40:38.430Z,61.13
2022-12-31T11:43:45.145Z,61.32
2022-12-31T11:46:19.669Z,62.71
2022-12-31T11:49:15.383Z,63.60
2022-12-31T11:52:27.379Z,63.42
2022-12-31T11:55:18.140Z,60.98
2022-12-31T11:57:52.018Z,59.70
2022-12-31T12:00:26.852Z,60.33
2022-12-31T12:03:03.652Z,61.56
2022-12-31T12:05:36.435Z,61.34
2022-12-31T12:08:08.053Z,61.08
2022-12-31T12:10:47.147Z,60.06
2022-12-31T12:13:27.710Z,57.63
2022-12-31T12:16:07.432Z,55.83
2022-12-31T12:18:46.535Z,60.22
2022-12-31T12:21:22.894Z,59.40
2022-12-31T12:24:28.187Z,58.16
2022-12-31T12:26:59.844Z,56.78
2022-12-31T12:29:34.111Z,56.17
2022-12-31T12:32:15.986Z,57.98
2022-12-31T12:34:50.030Z,55.98
2022-12-31T12:37:24.765Z,54.32
2022-12-31T12:40:04.056Z,53.66
2022-12-31T12:42:35.686Z,54.52
2022-12-31T12:45:15.548Z,55.98
2022-12-31T12:48:01.260Z,56.34
2022-12-31T12:50:44.672Z,56.04
2022-12-31T12:53:51.129Z,57.34
2022-12-31T12:56:46.671Z,56.55
2022-12-31T12:59:46.240Z,57.32
2022-12-31T13:02:30.016Z,56.63
2022-12-31T13:05:30.894Z,57.30
2022-12-31T13:08:05.549Z,56.35
2022-12-31T13:10:59.813Z,56.08
2022-12-31T13:13:43.612Z,55.05
2022-12-31T13:16:20.983Z,55.81
2022-12-31T13:19:13.741Z,51.98
2022-12-31T13:21:45.970Z,53.30
2022-12-31T13:24:42.592Z,54.92
2022-12-31T13:27:35.924Z,57.86
2022-12-31T13:30:18.017Z,57.16
2022-12-31T13:33:03.944Z,57.84
2022-12-31T13:35:51.960Z,62.01
2022-12-31T13:38:34.093Z,61.01
2022-12-31T13:41:24.200Z,61.26
2022-12-31T13:44:28.828Z,61.11
2022-12-31T13:47:15.437Z,60.79
2022-12-31T13:49:57.252Z,60.58
2022-12-31T13:52:37.722Z,61.99
2022-12-31T13:55:20.430Z,63.18
2022-12-31T13:57:54.001Z,63.11
2022-12-31T14:00:34.116Z,57.96
2022-12-31T14:03:20.988Z,60.22
2022-12-31T14:06:00.985Z,61.74
2022-12-31T14:08:32.843Z,63.92
2022-12-31T14:11:33.093Z,60.72
2022-12-31T14:14:29.862Z,61.91
2022-12-31T14:17:04.390Z,61.89
2022-12-31T14:20:12.050Z,63.88
2022-12-31T14:23:25.670Z,65.13
2022-12-31T14:26:05.949Z,63.73
2022-12-31T14:29:04.546Z,63.86
2022-12-31T14:31:36.246Z,65.81
2022-12-31T14:34:32.096Z,65.20
2022-12-31T14:37:09.353Z,64.04
2022-12-31T14:39:58.935Z,65.77
2022-12-31T14:43:17.095Z,64.84
2022-12-31T14:46:05.917Z,65.54
2022-12-31T14:49:16.059Z,62.99
2022-12-31T14:51:47.858Z,60.69
2022-12-31T14:54:29.315Z,61.19
2022-12-31T14:57:16.344Z,61.24
2022-12-31T14:59:55.613Z,61.13
2022-12-31T15:02:34.584Z,59.81
2022-12-31T15:05:12.558Z,61.45
2022-12-31T15:08:02.035Z,59.30
2022-12-31T15:10:46.667Z,59.95
2022-12-31T15:13:52.136Z,60.79
2022-12-31T15:16:41.842Z,60.47
2022-12-31T15:19:19.123Z,60.05
2022-12-31T15:22:21.709Z,62.75
2022-12-31T15:24:53.558Z,61.29
2022-12-31T15:27:38.294Z,60.38
2022-12-31T15:30:29.831Z,61.68
2022-12-31T15:33:07.121Z,61.90
2022-12-31T15:35:54.775Z,62.75
2022-12-31T15:38:36.254Z,62.37
2022-12-31T15:41:18.954Z,62.18
2022-12-31T15:44:06.531Z,61.23
2022-12-31T15:46:42.606Z,63.57
2022-12-31T15:49:21.072Z,64.44
2022-12-31T15:52:13.846Z,62.93
2022-12-31T15:54:49.748Z,64.61
2022-12-31T15:57:43.172Z,63.70
2022-12-31T16:00:18.231Z,64.43
2022-12-31T16:02:54.242Z,63.58
2022-12-31T16:05:27.733Z,63.41
2022-12-31T16:08:00.686Z,63.29
2022-12-31T16:10:33.200Z,63.17
2022-12-31T16:13:04.928Z,63.40
2022-12-31T16:15:36.981Z,65.52
2022-12-31T16:18:14.700Z,64.89
2022-12-31T16:20:50.638Z,66.83
2022-12-31T16:23:25.010Z,67.79
2022-12-31T16:26:01.388Z,66.16
2022-12-31T16:28:34.860Z,66.45
2022-12-31T16:31:15.162Z,65.82
2022-12-31T16:33:47.457Z,66.21
2022-12-31T16:36:23.830Z,65.43
2022-12-31T16:39:23.439Z,68.00
2022-12-31T16:42:13.284Z,66.04
2022-12-31T16:44:46.139Z,66.47
2022-12-31T16:47:22.883Z,67.59
2022-12-31T16:50:01.996Z,69.10
2022-12-31T16:52:39.445Z,67.30
2022-12-31T16:55:25.437Z,68.81
2022-12-31T16:58:19.826Z,67.40
2022-12-31T17:00:53.514Z,69.72
2022-12-31T17:03:28.873Z,70.08
2022-12-31T17:06:17.326Z,70.23
2022-12-31T17:08:58.106Z,68.52
2022-12-31T17:11:49.616Z,69.47
2022-12-31T17:14:27.498Z,70.40
2022-12-31T17:17:04.196Z,69.93
2022-12-31T17:19:49.781Z,69.68
2022-12-31T17:22:37.001Z,71.07
2022-12-31T17:25:23.886Z,69.87
2022-12-31T17:28:18.863Z,70.06
2022-12-31T17:30:51.261Z,70.56
2022-12-31T17:33:22.811Z,69.88
2022-12-31T17:36:15.208Z,70.21
2022-12-31T17:38:47.089Z,69.69
2022-12-31T17:41:27.430Z,69.14
2022-12-31T17:43:59.227Z,68.63
2022-12-31T17:46:37.912Z,70.06
2022-12-31T17:49:13.217Z,69.44
2022-12-31T17:51:47.717Z,69.66
2022-12-31T17:54:19.762Z,69.11
2022-12-31T17:56:53.280Z,68.13
2022-12-31T17:59:27.427Z,69.07
2022-12-31T18:02:02.424Z,69.69
2022-12-31T18:04:34.272Z,69.36
2022-12-31T18:07:05.891Z,69.18
2022-12-31T18:09:37.561Z,69.23
2022-12-31T18:12:12.448Z,68.51
2022-12-31T18:14:45.922Z,69.11
2022-12-31T18:17:17.464Z,68.85
2022-12-31T18:20:06.152Z,68.52
2022-12-31T18:22:41.090Z,68.98
2022-12-31T18:25:24.015Z,70.04
2022-12-31T18:27:55.681Z,68.89
2022-12-31T18:30:27.377Z,69.21
2022-12-31T18:32:59.271Z,69.65
2022-12-31T18:36:07.285Z,69.57
2022-12-31T18:38:22.789Z,69.14
2022-12-31T18:40:58.394Z,69.82
2022-12-31T18:43:30.191Z,70.15
2022-12-31T18:46:01.936Z,69.89
2022-12-31T18:48:33.975Z,69.75
2022-12-31T18:51:05.723Z,69.91
2022-12-31T18:53:37.627Z,69.58
2022-12-31T18:56:12.872Z,69.74
2022-12-31T18:58:46.059Z,69.11
2022-12-31T19:01:26.815Z,69.23
2022-12-31T19:04:02.029Z,67.30
2022-12-31T19:06:33.730Z,69.02
2022-12-31T19:09:13.278Z,67.87
2022-12-31T19:11:57.585Z,67.78
2022-12-31T19:14:29.321Z,68.42
2022-12-31T19:19:34.312Z,70.55
2022-12-31T19:22:05.990Z,69.55
2022-12-31T19:24:37.667Z,69.40
2022-12-31T19:27:09.967Z,70.43
2022-12-31T19:29:41.741Z,69.72
2022-12-31T19:32:13.402Z,71.13
2022-12-31T19:34:45.151Z,69.72
2022-12-31T19:37:16.806Z,68.25
2022-12-31T19:39:48.537Z,67.26
2022-12-31T19:42:20.157Z,67.46
2022-12-31T19:44:51.790Z,67.67
2022-12-31T19:47:23.471Z,68.00
2022-12-31T19:49:55.214Z,69.43
2022-12-31T19:52:26.816Z,67.58
2022-12-31T19:54:58.426Z,68.50
2022-12-31T19:57:30.059Z,70.02
2022-12-31T20:00:01.731Z,71.20
2022-12-31T20:02:46.060Z,71.71
2022-12-31T20:05:19.004Z,71.82
2022-12-31T20:07:50.929Z,72.35
2022-12-31T20:10:22.725Z,72.96
2022-12-31T20:12:54.585Z,73.03
2022-12-31T20:15:26.397Z,72.18
2022-12-31T20:17:58.866Z,73.16
2022-12-31T20:20:31.099Z,72.56
2022-12-31T20:23:02.686Z,72.83
2022-12-31T20:25:34.291Z,73.31
2022-12-31T20:28:05.887Z,73.67
2022-12-31T20:30:38.841Z,73.69
2022-12-31T20:33:15.789Z,73.34
2022-12-31T20:35:51.360Z,72.65
2022-12-31T20:38:22.986Z,72.92
2022-12-31T20:40:54.558Z,73.60
2022-12-31T20:43:30.588Z,72.83
2022-12-31T20:46:15.936Z,72.10
2022-12-31T20:48:49.900Z,73.22
2022-12-31T20:51:23.469Z,72.60
2022-12-31T20:54:01.631Z,72.77
2022-12-31T20:56:35.709Z,73.24
2022-12-31T20:59:08.781Z,72.70
2022-12-31T21:02:19.579Z,73.18
2022-12-31T21:04:32.363Z,72.60
2022-12-31T21:07:04.300Z,73.46
2022-12-31T21:09:35.846Z,73.49
2022-12-31T21:12:10.853Z,73.55
2022-12-31T21:14:44.846Z,73.74
2022-12-31T21:17:16.718Z,73.96
2022-12-31T21:19:48.339Z,74.12
2022-12-31T21:22:20.568Z,73.31
2022-12-31T21:24:52.216Z,74.16
2022-12-31T21:27:23.972Z,73.50
2022-12-31T21:30:20.068Z,73.46
2022-12-31T21:32:47.999Z,73.51
2022-12-31T21:38:11.163Z,74.42
2022-12-31T21:40:42.768Z,73.16
2022-12-31T21:43:15.593Z,74.28
2022-12-31T21:45:47.178Z,74.21
2022-12-31T21:48:18.724Z,73.79
2022-12-31T21:50:53.324Z,72.85
2022-12-31T21:53:30.564Z,73.75
2022-12-31T21:56:09.396Z,72.73
2022-12-31T21:58:44.421Z,72.92
2022-12-31T22:01:20.195Z,72.43
2022-12-31T22:03:52.035Z,73.01
2022-12-31T22:06:24.870Z,72.59
2022-12-31T22:08:56.940Z,72.52
2022-12-31T22:11:28.977Z,72.77
2022-12-31T22:14:01.814Z,72.54
2022-12-31T22:16:33.556Z,72.95
2022-12-31T22:19:05.295Z,72.72
2022-12-31T22:21:36.919Z,73.00
2022-12-31T22:24:08.716Z,72.10
2022-12-31T22:26:44.804Z,72.49
2022-12-31T22:29:18.383Z,72.39
2022-12-31T22:31:50.176Z,73.40
2022-12-31T22:34:21.779Z,73.61
2022-12-31T22:36:53.425Z,73.22
2022-12-31T22:39:43.391Z,73.31
2022-12-31T22:42:15.897Z,73.58
2022-12-31T22:44:47.510Z,73.51
2022-12-31T22:47:19.140Z,74.23
2022-12-31T22:49:50.878Z,73.22
2022-12-31T22:52:22.778Z,72.71
2022-12-31T22:54:54.395Z,72.73
2022-12-31T22:57:26.190Z,73.39
2022-12-31T22:59:57.777Z,73.63
2022-12-31T23:02:29.484Z,73.08
2022-12-31T23:05:15.423Z,73.81
2022-12-31T23:07:47.942Z,73.37
2022-12-31T23:10:19.568Z,72.85
2022-12-31T23:12:51.166Z,73.38
2022-12-31T23:15:22.885Z,73.10
2022-12-31T23:17:54.597Z,73.17
2022-12-31T23:20:26.368Z,74.07
2022-12-31T23:22:58.187Z,73.17
2022-12-31T23:25:41.674Z,72.88
2022-12-31T23:28:16.912Z,73.43
2022-12-31T23:30:49.744Z,73.37
2022-12-31T23:33:24.729Z,73.36
2022-12-31T23:36:05.091Z,73.93
2022-12-31T23:38:36.736Z,74.12
2022-12-31T23:41:16.211Z,74.14
2022-12-31T23:43:49.011Z,74.52
2022-12-31T23:46:20.689Z,74.21
2022-12-31T23:48:52.733Z,73.61
2022-12-31T23:51:24.408Z,73.49
2022-12-31T23:53:56.160Z,73.65
2022-12-31T23:56:27.923Z,72.67
2022-12-31T23:59:00.145Z,72.82
